Home > Products > Valid Products > MTR

000
SAUS45 KPIH 302252
MTRSNT
METAR KSNT 302251Z AUTO 16006KT 17/M04 A3016 RMK AO1 SLP153
T01671044





000
SAUS45 KPIH 302152
MTRSNT
METAR KSNT 302151Z AUTO 16009KT 17/M04 A3017 RMK AO1 SLP156
T01721039





000
SAUS45 KPIH 302152
MTRSNT
METAR KSNT 302151Z AUTO 16009KT 17/M04 A3017 RMK AO1 SLP156
T01721039





000
SAUS45 KPIH 302052
MTRSNT
METAR KSNT 302051Z AUTO 34004KT 14/01 A3018 RMK AO1 SLP168 T01440011
58030





000
SAUS45 KPIH 301952
MTRSNT
METAR KSNT 301951Z AUTO 35006KT 12/01 A3023 RMK AO1 SLP191 T01170006





000
SAUS45 KPIH 301852
MTRSNT
METAR KSNT 301851Z AUTO 35004KT 10/00 A3027 RMK AO1 SLP211 T01000000





000
SAUS45 KPIH 301752
MTRSNT
METAR KSNT 301751Z AUTO 35004KT 07/00 A3029 RMK AO1 SLP222 T00670000
10067 21011 58006





000
SAUS45 KPIH 301652
MTRSNT
METAR KSNT 301651Z AUTO 36003KT 04/M02 A3031 RMK AO1 SLP235
T00391017





000
SAUS45 KPIH 301652
MTRSNT
METAR KSNT 301651Z AUTO 36003KT 04/M02 A3031 RMK AO1 SLP235
T00391017





000
SAUS45 KPIH 301552
MTRSNT
METAR KSNT 301551Z AUTO 07003KT 01/M02 A3032 RMK AO1 SLP251
T00061022





000
SAUS45 KPIH 301452
MTRSNT
METAR KSNT 301451Z AUTO 00000KT M01/M03 A3031 RMK AO1 SLP249
T10111028 53006





000
SAUS45 KPIH 301352
MTRSNT
METAR KSNT 301351Z AUTO 00000KT M01/M03 A3030 RMK AO1 SLP243
T10111028





000
SAUS45 KPIH 301252
MTRSNT
METAR KSNT 301251Z AUTO 18003KT M01/M03 A3029 RMK AO1 SLP237
T10111033





000
SAUS45 KPIH 301152
MTRSNT
METAR KSNT 301151Z AUTO 10005KT 00/M03 A3029 RMK AO1 SLP222 70002
T00001028 10022 21006 58008





000
SAUS45 KPIH 301052
MTRSNT
METAR KSNT 301051Z AUTO 00000KT 01/M02 A3032 RMK AO1 SLP227
T00061022





000
SAUS45 KPIH 301052
MTRSNT
METAR KSNT 301051Z AUTO 00000KT 01/M02 A3032 RMK AO1 SLP227
T00061022





000
SAUS45 KPIH 300952
MTRSNT
METAR KSNT 300951Z AUTO 18004KT 00/M02 A3031 RMK AO1 SLP227
T00001022





000
SAUS45 KPIH 300852
MTRSNT
METAR KSNT 300851Z AUTO 00000KT 01/M02 A3032 RMK AO1 SLP224
T00111022 51004





000
SAUS45 KPIH 300752
MTRSNT
METAR KSNT 300751Z AUTO 00000KT 01/M02 A3032 RMK AO1 SLP226
T00061022





000
SAUS45 KPIH 300652
MTRSNT
METAR KSNT 300651Z AUTO 00000KT 00/M03 A3031 RMK AO1 SLP227
T00001028 401171006





000
SAUS45 KPIH 300552
MTRSNT
METAR KSNT 300551Z AUTO VRB03KT 02/M02 A3031 RMK AO1 SLP224
T00221022 10083 20006 50002





000
SAUS45 KPIH 300452
MTRSNT
METAR KSNT 300451Z AUTO 17003KT 03/M02 A3031 RMK AO1 SLP228
T00281022





000
SAUS45 KPIH 300452
MTRSNT
METAR KSNT 300451Z AUTO 17003KT 03/M02 A3031 RMK AO1 SLP228
T00281022





000
SAUS45 KPIH 300352
MTRSNT
METAR KSNT 300351Z AUTO 16003KT 01/M02 A3030 RMK AO1 SLP234
T00061022





000
SAUS45 KPIH 300252
MTRSNT
METAR KSNT 300251Z AUTO 00000KT 02/M02 A3030 RMK AO1 SLP235
T00171022 53007





000
SAUS45 KPIH 300152
MTRSNT
METAR KSNT 300151Z AUTO 00000KT 02/M02 A3029 RMK AO1 SLP228
T00221017





000
SAUS45 KPIH 300052
MTRSNT
METAR KSNT 300051Z AUTO 00000KT 04/M01 A3027 RMK AO1 SLP216
T00441006





000
SAUS45 KPIH 292352
MTRSNT
METAR KSNT 292351Z AUTO 00000KT 08/00 A3027 RMK AO1 SLP207 T00830000
10117 20078 53000





000
SAUS45 KPIH 292252
MTRSNT
METAR KSNT 292251Z AUTO VRB04KT 09/M01 A3028 RMK AO1 SLP205
T00941011





000
SAUS45 KPIH 292252
MTRSNT
METAR KSNT 292251Z AUTO VRB04KT 09/M01 A3028 RMK AO1 SLP205
T00941011





000
SAUS45 KPIH 292152
MTRSNT
METAR KSNT 292151Z AUTO 01004KT 10/M01 A3026 RMK AO1 SLP199
T01001006





000
SAUS45 KPIH 292052
MTRSNT
METAR KSNT 292051Z AUTO 20007KT 170V230 11/M02 A3027 RMK AO1 SLP207
T01061017 50002





000
SAUS45 KPIH 291952
MTRSNT
METAR KSNT 291951Z AUTO 25005KT 11/M02 A3028 RMK AO1 SLP209
T01061017





000
SAUS45 KPIH 291852
MTRSNT
METAR KSNT 291851Z AUTO 20004KT 09/M02 A3026 RMK AO1 SLP204
T00941017





000
SAUS45 KPIH 291752
MTRSNT
METAR KSNT 291751Z AUTO 00000KT 08/04 A3026 RMK AO1 SLP206 60002
T00780044 10078 20022 50008





000
SAUS45 KPIH 291652
MTRSNT
METAR KSNT 291651Z AUTO VRB03KT 06/03 A3027 RMK AO1 SLP214 T00560033





000
SAUS45 KPIH 291552
MTRSNT
METAR KSNT 291551Z AUTO 19004KT 04/02 A3026 RMK AO1 SLP213 P0002
T00440022





000
SAUS45 KPIH 291452
MTRSNT
METAR KSNT 291451Z AUTO 20003KT 03/01 A3023 RMK AO1 SLP210 T00280011
53013





000
SAUS45 KPIH 291352
MTRSNT
METAR KSNT 291351Z AUTO 33003KT 03/01 A3022 RMK AO1 SLP209 T00280006





000
SAUS45 KPIH 291252
MTRSNT
METAR KSNT 291251Z AUTO VRB04KT 03/01 A3019 RMK AO1 SLP194 T00280006





000
SAUS45 KPIH 291152
MTRSNT
METAR KSNT 291151Z AUTO 08003KT 04/01 A3019 RMK AO1 SLP181 60002
7//// T00390006 10056 20011 58009





000
SAUS45 KPIH 291052
MTRSNT
METAR KSNT 291051Z AUTO 14003KT 04/01 A3021 RMK AO1 SLP178 T00390011





000
SAUS45 KPIH 291052
MTRSNT
METAR KSNT 291051Z AUTO 14003KT 04/01 A3021 RMK AO1 SLP178 T00390011





000
SAUS45 KPIH 290952
MTRSNT
METAR KSNT 290951Z AUTO 14005KT 04/01 A3021 RMK AO1 SLP183 P0001
T00390011





000
SAUS45 KPIH 290852
MTRSNT
METAR KSNT 290851Z AUTO 00000KT 02/M01 A3022 RMK AO1 SLP193 60001
T00171011 51007





000
SAUS45 KPIH 290752
MTRSNT
METAR KSNT 290751Z AUTO 00000KT 02/M02 A3021 RMK AO1 SLP194 P0001
T00171017





000
SAUS45 KPIH 290652
MTRSNT
METAR KSNT 290651Z AUTO 34007KT 02/M03 A3021 RMK AO1 SLP197
T00221028 401061072





000
SAUS45 KPIH 290552
MTRSNT
METAR KSNT 290551Z AUTO 14005KT 03/M04 A3020 RMK AO1 SLP196
T00331039 10050 21006 56004





000
SAUS45 KPIH 290452
MTRSNT
METAR KSNT 290451Z AUTO 09003KT 03/M04 A3020 RMK AO1 SLP207
T00281039





000
SAUS45 KPIH 290352
MTRSNT
METAR KSNT 290351Z AUTO 13005KT 03/M03 A3020 RMK AO1 SLP210
T00281033





000
SAUS45 KPIH 290252
MTRSNT
METAR KSNT 290251Z AUTO 05004KT 02/M02 A3021 RMK AO1 SLP224
T00221022 50005





000
SAUS45 KPIH 290152
MTRSNT
METAR KSNT 290151Z AUTO VRB03KT 01/M02 A3021 RMK AO1 SLP228
T00061022





000
SAUS45 KPIH 290052
MTRSNT
METAR KSNT 290051Z AUTO 19004KT 02/M02 A3020 RMK AO1 SLP217
T00221022





000
SAUS45 KPIH 282352
MTRSNT
METAR KSNT 282351Z AUTO 00000KT 06/M01 A3019 RMK AO1 SLP206
T00561011 10106 20017 55003 $





000
SAUS45 KPIH 282252
MTRSNT
METAR KSNT 282251Z AUTO 36004KT 11/M03 A3019 RMK AO1 SLP198
T01061028





000
SAUS45 KPIH 282152
MTRSNT
METAR KSNT 282151Z AUTO 30003KT 09/M04 A3019 RMK AO1 SLP203
T00891039





000
SAUS45 KPIH 282052
MTRSNT
METAR KSNT 282051Z AUTO 32004KT 08/M08 A3020 RMK AO1 SLP210
T00831078 57012





000
SAUS45 KPIH 281952
MTRSNT
METAR KSNT 281951Z AUTO VRB04KT 07/M10 A3022 RMK AO1 SLP219
T00671100





000
SAUS45 KPIH 281852
MTRSNT
METAR KSNT 281851Z AUTO 00000KT 05/M10 A3023 RMK AO1 SLP226
T00501100





000
SAUS45 KPIH 281752
MTRSNT
METAR KSNT 281751Z AUTO 01004KT 02/M05 A3025 RMK AO1 SLP237
T00171050 10017 21056 51004





000
SAUS45 KPIH 281652
MTRSNT
METAR KSNT 281651Z AUTO 35004KT M01/M04 A3025 RMK AO1 SLP243
T10061044





000
SAUS45 KPIH 281652
MTRSNT
METAR KSNT 281651Z AUTO 35004KT M01/M04 A3025 RMK AO1 SLP243
T10061044





000
SAUS45 KPIH 281552
MTRSNT
METAR KSNT 281551Z AUTO 00000KT M02/M05 A3024 RMK AO1 SLP242
T10221050





000
SAUS45 KPIH 281552
MTRSNT
METAR KSNT 281551Z AUTO 00000KT M02/M05 A3024 RMK AO1 SLP242
T10221050





000
SAUS45 KPIH 281452
MTRSNT
METAR KSNT 281451Z AUTO 00000KT M06/M07 A3023 RMK AO1 SLP240
T10561072 51009





000
SAUS45 KPIH 281352
MTRSNT
METAR KSNT 281351Z AUTO 00000KT M05/M06 A3022 RMK AO1 SLP234
T10501061





000
SAUS45 KPIH 281252
MTRSNT
METAR KSNT 281251Z AUTO 00000KT M05/M07 A3021 RMK AO1 SLP227
T10501067





000
SAUS45 KPIH 281152
MTRSNT
METAR KSNT 281151Z AUTO 00000KT M05/M07 A3020 RMK AO1 SLP219
T10501067 11050 21072 58001





000
SAUS45 KPIH 281052
MTRSNT
METAR KSNT 281051Z AUTO 00000KT M06/M07 A3020 RMK AO1 SLP222
T10611072





000
SAUS45 KPIH 280952
MTRSNT
METAR KSNT 280951Z AUTO 11003KT M07/M08 A3021 RMK AO1 SLP225
T10671083





000
SAUS45 KPIH 280952
MTRSNT
METAR KSNT 280951Z AUTO 11003KT M07/M08 A3021 RMK AO1 SLP225
T10671083





000
SAUS45 KPIH 280852
MTRSNT
METAR KSNT 280851Z AUTO 18004KT M07/M09 A3020 RMK AO1 SLP227
T10721089 53007





000
SAUS45 KPIH 280752
MTRSNT
METAR KSNT 280751Z AUTO 18004KT M07/M09 A3019 RMK AO1 SLP223
T10721089





000
SAUS45 KPIH 280652
MTRSNT
METAR KSNT 280651Z AUTO 00000KT M06/M08 A3018 RMK AO1 SLP216
T10611078 400281083





000
SAUS45 KPIH 280552
MTRSNT
METAR KSNT 280551Z AUTO 19003KT M06/M07 A3018 RMK AO1 SLP219
T10561072 10017 21061 51009





000
SAUS45 KPIH 280452
MTRSNT
METAR KSNT 280451Z AUTO 17003KT M05/M07 A3017 RMK AO1 SLP217
T10501067





000
SAUS45 KPIH 280452
MTRSNT
METAR KSNT 280451Z AUTO 17003KT M05/M07 A3017 RMK AO1 SLP217
T10501067





000
SAUS45 KPIH 280352
MTRSNT
METAR KSNT 280351Z AUTO 17003KT M04/M06 A3016 RMK AO1 SLP217
T10391056





000
SAUS45 KPIH 280352
MTRSNT
METAR KSNT 280351Z AUTO 17003KT M04/M06 A3016 RMK AO1 SLP217
T10391056





000
SAUS45 KPIH 280252
MTRSNT
METAR KSNT 280251Z AUTO 00000KT M02/M04 A3014 RMK AO1 SLP206
T10171044 53004





000
SAUS45 KPIH 280152
MTRSNT
METAR KSNT 280151Z AUTO 00000KT M01/M03 A3014 RMK AO1 SLP204
T10061028





000
SAUS45 KPIH 280152
MTRSNT
METAR KSNT 280151Z AUTO 00000KT M01/M03 A3014 RMK AO1 SLP204
T10061028





000
SAUS45 KPIH 280052
MTRSNT
METAR KSNT 280051Z AUTO 26003KT 01/M03 A3013 RMK AO1 SLP203
T00061033





000
SAUS45 KPIH 272352
MTRSNT
METAR KSNT 272351Z AUTO VRB03KT 02/M04 A3013 RMK AO1 SLP198
T00171039 10028 20000 57001





    US Dept of Commerce
    National Oceanic and Atmospheric Administration
    National Weather Service
    1325 East West Highway
    Silver Spring, MD 20910
    Page Author: NWS Internet Services Team
Disclaimer
Information Quality
Credits
Glossary
Privacy Policy
Freedom of Information Act (FOIA)
About Us
Career Opportunities